createdAt,value
2023-02-19T00:01:25.299Z,1.78
2023-02-19T00:03:57.251Z,1.38
2023-02-19T00:06:25.885Z,1.57
2023-02-19T00:08:53.328Z,1.87
2023-02-19T00:11:23.237Z,1.52
2023-02-19T00:13:52.570Z,1.91
2023-02-19T00:16:27.911Z,0.86
2023-02-19T00:18:57.161Z,1.84
2023-02-19T00:21:24.632Z,1.65
2023-02-19T00:24:00.874Z,1.79
2023-02-19T00:26:28.497Z,1.10
2023-02-19T00:28:56.992Z,1.80
2023-02-19T00:31:34.942Z,1.76
2023-02-19T00:34:04.410Z,1.86
2023-02-19T00:36:32.614Z,1.83
2023-02-19T00:38:59.478Z,1.69
2023-02-19T00:41:35.813Z,1.17
2023-02-19T00:44:05.790Z,1.67
2023-02-19T00:46:36.044Z,1.50
2023-02-19T00:49:04.598Z,1.63
2023-02-19T00:51:34.943Z,1.23
2023-02-19T00:54:02.304Z,1.64
2023-02-19T00:56:29.669Z,1.39
2023-02-19T00:58:56.795Z,1.70
2023-02-19T01:01:23.657Z,1.05
2023-02-19T01:03:50.888Z,1.58
2023-02-19T01:06:19.574Z,1.69
2023-02-19T01:08:46.688Z,1.43
2023-02-19T01:11:14.525Z,1.62
2023-02-19T01:13:41.942Z,1.15
2023-02-19T01:16:13.115Z,1.62
2023-02-19T01:18:40.174Z,1.37
2023-02-19T01:21:09.316Z,-0.39
2023-02-19T01:23:36.274Z,1.29
2023-02-19T01:26:12.088Z,1.45
2023-02-19T01:28:38.996Z,1.53
2023-02-19T01:31:08.779Z,1.37
2023-02-19T01:33:35.745Z,1.48
2023-02-19T01:36:07.024Z,1.47
2023-02-19T01:38:34.035Z,1.52
2023-02-19T01:41:06.275Z,1.56
2023-02-19T01:43:35.377Z,1.49
2023-02-19T01:46:02.119Z,1.66
2023-02-19T01:48:39.742Z,1.74
2023-02-19T01:51:11.479Z,1.76
2023-02-19T01:53:43.696Z,0.78
2023-02-19T01:56:16.095Z,1.72
2023-02-19T01:58:43.803Z,1.05
2023-02-19T02:01:11.323Z,1.63
2023-02-19T02:03:41.906Z,1.80
2023-02-19T02:06:15.609Z,1.82
2023-02-19T02:09:01.075Z,1.60
2023-02-19T02:11:28.670Z,1.03
2023-02-19T02:13:55.920Z,0.92
2023-02-19T02:16:34.334Z,1.51
2023-02-19T02:19:36.533Z,1.43
2023-02-19T02:22:19.630Z,1.36
2023-02-19T02:25:04.584Z,1.37
2023-02-19T02:27:53.537Z,1.40
2023-02-19T02:30:38.026Z,1.47
2023-02-19T02:33:10.368Z,1.51
2023-02-19T02:35:47.994Z,1.24
2023-02-19T02:38:18.577Z,-0.02
2023-02-19T02:40:45.487Z,1.06
2023-02-19T02:43:14.232Z,1.45
2023-02-19T02:45:41.733Z,0.88
2023-02-19T02:48:24.085Z,1.57
2023-02-19T02:50:53.902Z,1.63
2023-02-19T02:54:04.531Z,1.62
2023-02-19T02:56:31.974Z,1.05
2023-02-19T02:59:03.152Z,1.33
2023-02-19T03:01:55.365Z,1.48
2023-02-19T03:05:05.789Z,0.71
2023-02-19T03:07:41.733Z,1.61
2023-02-19T03:10:11.984Z,1.05
2023-02-19T03:12:59.250Z,1.31
2023-02-19T03:15:51.118Z,1.61
2023-02-19T03:18:38.170Z,1.61
2023-02-19T03:21:07.380Z,1.40
2023-02-19T03:23:54.201Z,1.29
2023-02-19T03:26:22.111Z,1.10
2023-02-19T03:29:12.015Z,1.31
2023-02-19T03:31:43.608Z,1.42
2023-02-19T03:34:16.795Z,0.92
2023-02-19T03:36:48.234Z,1.19
2023-02-19T03:39:20.284Z,0.97
2023-02-19T03:41:58.940Z,1.34
2023-02-19T03:44:53.484Z,1.33
2023-02-19T03:47:30.457Z,0.98
2023-02-19T03:49:57.343Z,1.24
2023-02-19T03:52:30.540Z,1.24
2023-02-19T03:55:20.615Z,1.06
2023-02-19T03:57:54.166Z,0.52
2023-02-19T04:00:37.015Z,1.00
2023-02-19T04:03:35.964Z,1.19
2023-02-19T04:06:10.473Z,1.14
2023-02-19T04:08:39.769Z,0.98
2023-02-19T04:11:09.040Z,0.81
2023-02-19T04:13:45.865Z,-0.37
2023-02-19T04:16:21.842Z,1.03
2023-02-19T04:18:54.456Z,-0.78
2023-02-19T04:21:23.043Z,0.32
2023-02-19T04:23:50.139Z,0.91
2023-02-19T04:26:19.572Z,0.37
2023-02-19T04:28:47.037Z,0.86
2023-02-19T04:31:14.617Z,0.84
2023-02-19T04:33:41.666Z,0.21
2023-02-19T04:36:10.994Z,0.69
2023-02-19T04:38:38.214Z,0.66
2023-02-19T04:41:05.109Z,0.51
2023-02-19T04:43:31.825Z,0.60
2023-02-19T04:46:02.440Z,0.61
2023-02-19T04:48:29.598Z,0.63
2023-02-19T04:50:56.387Z,0.58
2023-02-19T04:53:23.479Z,0.37
2023-02-19T04:55:53.317Z,0.38
2023-02-19T04:58:21.182Z,0.68
2023-02-19T05:00:51.872Z,0.40
2023-02-19T05:03:18.643Z,0.77
2023-02-19T05:05:45.322Z,0.40
2023-02-19T05:08:12.081Z,0.63
2023-02-19T05:10:38.788Z,0.69
2023-02-19T05:13:05.441Z,0.84
2023-02-19T05:15:32.182Z,0.92
2023-02-19T05:17:58.950Z,0.81
2023-02-19T05:20:25.568Z,0.46
2023-02-19T05:22:52.273Z,0.50
2023-02-19T05:25:19.033Z,0.88
2023-02-19T05:27:45.710Z,0.39
2023-02-19T05:30:13.198Z,0.39
2023-02-19T05:32:39.993Z,0.47
2023-02-19T05:35:06.936Z,0.42
2023-02-19T05:37:33.641Z,0.95
2023-02-19T05:40:00.382Z,0.84
2023-02-19T05:42:27.041Z,0.87
2023-02-19T05:44:53.904Z,0.83
2023-02-19T05:47:20.555Z,0.96
2023-02-19T05:49:47.223Z,0.32
2023-02-19T05:52:16.816Z,0.90
2023-02-19T05:54:43.513Z,0.69
2023-02-19T05:57:10.230Z,0.69
2023-02-19T05:59:36.990Z,0.80
2023-02-19T06:02:03.690Z,0.54
2023-02-19T06:04:30.353Z,0.32
2023-02-19T06:06:57.414Z,1.04
2023-02-19T06:09:24.097Z,1.16
2023-02-19T06:11:50.788Z,1.20
2023-02-19T06:14:17.557Z,1.13
2023-02-19T06:16:44.303Z,0.78
2023-02-19T06:19:11.056Z,1.34
2023-02-19T06:21:37.857Z,1.09
2023-02-19T06:24:06.744Z,0.70
2023-02-19T06:26:33.820Z,1.24
2023-02-19T06:29:00.617Z,1.11
2023-02-19T06:31:27.472Z,1.19
2023-02-19T06:33:55.079Z,0.73
2023-02-19T06:36:22.648Z,0.49
2023-02-19T06:38:49.633Z,1.09
2023-02-19T06:41:16.931Z,1.11
2023-02-19T06:43:43.862Z,1.32
2023-02-19T06:46:12.221Z,1.41
2023-02-19T06:48:40.330Z,1.49
2023-02-19T06:51:07.551Z,1.56
2023-02-19T06:53:34.311Z,1.14
2023-02-19T06:56:06.801Z,1.21
2023-02-19T06:58:34.034Z,0.43
2023-02-19T07:01:01.097Z,1.58
2023-02-19T07:03:28.154Z,1.23
2023-02-19T07:05:54.911Z,1.61
2023-02-19T07:08:21.590Z,1.24
2023-02-19T07:10:58.558Z,1.87
2023-02-19T07:13:29.727Z,1.75
2023-02-19T07:16:05.730Z,1.80
2023-02-19T07:18:32.562Z,1.88
2023-02-19T07:21:11.107Z,2.14
2023-02-19T07:23:38.471Z,1.98
2023-02-19T07:26:09.456Z,1.32
2023-02-19T07:28:36.195Z,1.18
2023-02-19T07:31:04.889Z,1.94
2023-02-19T07:33:35.447Z,2.01
2023-02-19T07:36:08.769Z,2.11
2023-02-19T07:38:36.186Z,2.25
2023-02-19T07:41:05.255Z,2.39
2023-02-19T07:43:34.426Z,2.43
2023-02-19T07:46:08.546Z,2.48
2023-02-19T07:48:36.692Z,1.30
2023-02-19T07:51:05.652Z,2.30
2023-02-19T07:53:34.650Z,2.25
2023-02-19T07:56:06.896Z,2.26
2023-02-19T07:58:34.498Z,2.17
2023-02-19T08:01:10.682Z,1.99
2023-02-19T08:03:38.579Z,2.10
2023-02-19T08:06:06.136Z,1.64
2023-02-19T08:08:32.872Z,1.96
2023-02-19T08:11:23.058Z,2.20
2023-02-19T08:13:51.317Z,2.39
2023-02-19T08:16:29.710Z,2.34
2023-02-19T08:19:00.255Z,2.57
2023-02-19T08:21:26.991Z,2.40
2023-02-19T08:23:53.952Z,2.00
2023-02-19T08:26:20.691Z,1.72
2023-02-19T08:28:48.744Z,1.99
2023-02-19T08:31:16.091Z,1.75
2023-02-19T08:33:42.872Z,2.76
2023-02-19T08:36:10.991Z,2.17
2023-02-19T08:38:38.553Z,3.06
2023-02-19T08:41:07.387Z,3.49
2023-02-19T08:43:35.233Z,3.47
2023-02-19T08:46:02.486Z,3.28
2023-02-19T08:48:29.415Z,3.53
2023-02-19T08:51:05.108Z,3.61
2023-02-19T08:53:32.972Z,3.13
2023-02-19T08:56:05.503Z,3.06
2023-02-19T08:58:33.116Z,3.05
2023-02-19T09:01:00.169Z,2.64
2023-02-19T09:03:27.013Z,2.87
2023-02-19T09:05:53.888Z,2.37
2023-02-19T09:08:20.611Z,3.31
2023-02-19T09:11:01.539Z,3.56
2023-02-19T09:13:28.339Z,3.83
2023-02-19T09:15:57.086Z,4.16
2023-02-19T09:18:25.537Z,4.11
2023-02-19T09:20:52.382Z,4.28
2023-02-19T09:23:19.156Z,4.11
2023-02-19T09:25:46.050Z,4.15
2023-02-19T09:28:12.994Z,4.40
2023-02-19T09:30:39.967Z,5.01
2023-02-19T09:33:06.989Z,5.13
2023-02-19T09:35:33.686Z,5.43
2023-02-19T09:38:02.052Z,5.47
2023-02-19T09:40:30.365Z,5.70
2023-02-19T09:42:57.664Z,5.50
2023-02-19T09:45:26.319Z,5.38
2023-02-19T09:47:59.590Z,5.86
2023-02-19T09:50:36.215Z,5.23
2023-02-19T09:53:11.961Z,5.05
2023-02-19T09:55:42.476Z,4.71
2023-02-19T09:58:27.365Z,4.57
2023-02-19T10:00:56.667Z,3.93
2023-02-19T10:03:31.786Z,3.60
2023-02-19T10:06:01.830Z,4.49
2023-02-19T10:08:32.850Z,4.95
2023-02-19T10:11:02.789Z,4.86
2023-02-19T10:13:34.058Z,5.43
2023-02-19T10:16:02.976Z,5.09
2023-02-19T10:18:37.794Z,5.50
2023-02-19T10:21:05.879Z,5.55
2023-02-19T10:23:33.566Z,6.09
2023-02-19T10:26:00.720Z,6.04
2023-02-19T10:28:34.016Z,6.17
2023-02-19T10:31:03.372Z,6.47
2023-02-19T10:33:30.541Z,6.06
2023-02-19T10:35:58.477Z,6.28
2023-02-19T10:38:29.398Z,6.19
2023-02-19T10:41:04.535Z,6.05
2023-02-19T10:43:35.482Z,5.74
2023-02-19T10:46:06.582Z,6.28
2023-02-19T10:48:47.344Z,6.57
2023-02-19T10:51:21.760Z,7.38
2023-02-19T10:53:51.924Z,7.24
2023-02-19T10:56:25.764Z,7.69
2023-02-19T10:58:52.841Z,7.55
2023-02-19T11:01:25.701Z,7.86
2023-02-19T11:04:13.424Z,8.11
2023-02-19T11:06:40.373Z,8.28
2023-02-19T11:09:25.688Z,8.30
2023-02-19T11:11:54.307Z,8.00
2023-02-19T11:14:24.194Z,8.79
2023-02-19T11:16:56.366Z,9.55
2023-02-19T11:19:39.372Z,9.00
2023-02-19T11:22:30.805Z,8.98
2023-02-19T11:25:06.581Z,8.55
2023-02-19T11:27:34.177Z,8.76
2023-02-19T11:30:40.189Z,9.07
2023-02-19T11:33:25.295Z,9.05
2023-02-19T11:36:20.839Z,9.52
2023-02-19T11:38:47.684Z,9.02
2023-02-19T11:41:32.180Z,7.85
2023-02-19T11:44:34.293Z,6.74
2023-02-19T11:47:47.151Z,6.44
2023-02-19T11:50:23.016Z,5.92
2023-02-19T11:52:58.958Z,5.57
2023-02-19T11:55:46.933Z,5.08
2023-02-19T11:58:32.220Z,4.61
2023-02-19T12:01:13.225Z,1.95
2023-02-19T12:03:55.661Z,4.22
2023-02-19T12:06:25.373Z,4.44
2023-02-19T12:09:20.108Z,4.90
2023-02-19T12:12:09.775Z,4.04
2023-02-19T12:14:55.609Z,4.77
2023-02-19T12:17:34.492Z,4.30
2023-02-19T12:20:10.612Z,4.49
2023-02-19T12:23:15.749Z,4.32
2023-02-19T12:26:02.961Z,4.00
2023-02-19T12:28:38.932Z,3.91
2023-02-19T12:31:33.060Z,3.95
2023-02-19T12:34:09.013Z,3.84
2023-02-19T12:36:39.342Z,3.33
2023-02-19T12:39:25.714Z,3.65
2023-02-19T12:42:13.521Z,3.49
2023-02-19T12:44:56.180Z,3.40
2023-02-19T12:47:31.101Z,3.60
2023-02-19T12:50:13.038Z,3.65
2023-02-19T12:52:42.624Z,3.61
2023-02-19T12:55:41.492Z,3.55
2023-02-19T12:58:14.483Z,3.01
2023-02-19T13:00:50.309Z,2.94
2023-02-19T13:03:25.671Z,2.86
2023-02-19T13:06:34.927Z,3.24
2023-02-19T13:09:34.704Z,3.68
2023-02-19T13:12:11.591Z,5.25
2023-02-19T13:14:48.730Z,6.07
2023-02-19T13:17:28.664Z,6.91
2023-02-19T13:20:09.377Z,7.10
2023-02-19T13:23:01.710Z,7.15
2023-02-19T13:25:44.674Z,7.65
2023-02-19T13:28:42.200Z,7.10
2023-02-19T13:31:32.149Z,6.20
2023-02-19T13:34:08.006Z,4.48
2023-02-19T13:36:36.228Z,3.78
2023-02-19T13:39:06.415Z,3.31
2023-02-19T13:41:55.307Z,3.28
2023-02-19T13:44:27.403Z,3.58
2023-02-19T13:46:54.302Z,3.82
2023-02-19T13:49:31.510Z,3.83
2023-02-19T13:52:01.151Z,3.47
2023-02-19T13:54:30.610Z,3.58
2023-02-19T13:57:22.520Z,3.49
2023-02-19T13:59:53.599Z,3.65
2023-02-19T14:02:20.354Z,3.83
2023-02-19T14:05:24.090Z,3.94
2023-02-19T14:07:55.540Z,4.67
2023-02-19T14:10:51.780Z,5.32
2023-02-19T14:13:47.756Z,4.51
2023-02-19T14:16:50.307Z,3.79
2023-02-19T14:19:42.784Z,3.37
2023-02-19T14:22:52.730Z,2.94
2023-02-19T14:25:27.617Z,2.98
2023-02-19T14:28:00.489Z,2.72
2023-02-19T14:30:28.475Z,3.14
2023-02-19T14:33:09.754Z,3.09
2023-02-19T14:35:45.302Z,2.43
2023-02-19T14:38:32.636Z,2.56
2023-02-19T14:41:00.374Z,1.95
2023-02-19T14:43:28.738Z,2.04
2023-02-19T14:46:00.315Z,1.22
2023-02-19T14:48:37.860Z,2.11
2023-02-19T14:51:11.925Z,2.18
2023-02-19T14:53:44.208Z,2.56
2023-02-19T14:56:23.879Z,2.09
2023-02-19T14:59:23.292Z,2.29
2023-02-19T15:01:58.612Z,2.12
2023-02-19T15:04:29.207Z,1.93
2023-02-19T15:06:57.089Z,1.83
2023-02-19T15:09:41.034Z,1.63
2023-02-19T15:12:08.455Z,1.75
2023-02-19T15:14:35.335Z,1.66
2023-02-19T15:17:08.009Z,0.92
2023-02-19T15:19:36.371Z,0.07
2023-02-19T15:22:03.504Z,0.98
2023-02-19T15:24:30.523Z,0.90
2023-02-19T15:26:57.680Z,0.80
2023-02-19T15:29:27.404Z,0.08
2023-02-19T15:31:59.760Z,0.66
2023-02-19T15:34:29.080Z,0.62
2023-02-19T15:37:00.201Z,0.55
2023-02-19T15:39:47.363Z,0.53
2023-02-19T15:42:24.152Z,0.48
2023-02-19T15:44:55.409Z,0.42
2023-02-19T15:47:25.091Z,0.37
2023-02-19T15:50:15.187Z,0.40
2023-02-19T15:52:45.911Z,-0.23
2023-02-19T15:55:22.471Z,0.39
2023-02-19T15:58:05.940Z,0.35
2023-02-19T16:00:46.540Z,0.29
2023-02-19T16:03:19.675Z,0.30
2023-02-19T16:05:57.529Z,0.08
2023-02-19T16:08:32.571Z,0.28
2023-02-19T16:11:02.985Z,-1.05
2023-02-19T16:13:31.193Z,0.24
2023-02-19T16:16:03.685Z,-0.32
2023-02-19T16:18:31.172Z,0.23
2023-02-19T16:20:58.468Z,0.24
2023-02-19T16:23:27.368Z,-0.27
2023-02-19T16:26:00.222Z,0.24
2023-02-19T16:28:29.739Z,0.25
2023-02-19T16:31:02.168Z,0.25
2023-02-19T16:33:53.403Z,0.30
2023-02-19T16:36:32.545Z,0.34
2023-02-19T16:39:08.375Z,0.30
2023-02-19T16:42:03.908Z,0.33
2023-02-19T16:44:31.372Z,-0.34
2023-02-19T16:47:03.718Z,-0.34
2023-02-19T16:49:30.933Z,0.09
2023-02-19T16:52:04.200Z,-0.01
2023-02-19T16:54:31.324Z,-0.21
2023-02-19T16:56:58.157Z,-0.13
2023-02-19T16:59:24.888Z,0.17
2023-02-19T17:01:51.817Z,0.09
2023-02-19T17:04:18.756Z,0.30
2023-02-19T17:06:47.467Z,0.08
2023-02-19T17:09:14.259Z,-0.04
2023-02-19T17:11:41.164Z,0.42
2023-02-19T17:14:08.335Z,0.42
2023-02-19T17:16:40.387Z,0.44
2023-02-19T17:19:16.815Z,0.33
2023-02-19T17:21:45.215Z,0.51
2023-02-19T17:24:12.724Z,0.53
2023-02-19T17:26:39.594Z,0.35
2023-02-19T17:29:08.438Z,-0.90
2023-02-19T17:31:35.392Z,0.54
2023-02-19T17:34:02.213Z,0.38
2023-02-19T17:36:31.624Z,0.46
2023-02-19T17:39:00.259Z,0.28
2023-02-19T17:41:27.693Z,0.32
2023-02-19T17:43:54.619Z,0.25
2023-02-19T17:46:24.318Z,0.42
2023-02-19T17:48:51.258Z,-0.39
2023-02-19T17:51:18.171Z,0.08
2023-02-19T17:53:46.591Z,0.14
2023-02-19T17:56:28.092Z,0.30
2023-02-19T17:58:56.845Z,0.48
2023-02-19T18:01:24.563Z,0.60
2023-02-19T18:03:52.644Z,-0.16
2023-02-19T18:06:20.615Z,0.60
2023-02-19T18:08:49.676Z,0.39
2023-02-19T18:11:17.196Z,0.82
2023-02-19T18:13:44.273Z,0.86
2023-02-19T18:16:15.686Z,0.81
2023-02-19T18:18:43.821Z,0.88
2023-02-19T18:21:13.134Z,0.85
2023-02-19T18:23:40.934Z,0.80
2023-02-19T18:26:11.512Z,0.77
2023-02-19T18:28:39.048Z,0.77
2023-02-19T18:31:06.255Z,0.77
2023-02-19T18:33:35.207Z,0.78
2023-02-19T18:36:03.154Z,0.74
2023-02-19T18:38:30.682Z,0.71
2023-02-19T18:40:59.307Z,0.65
2023-02-19T18:43:26.688Z,0.37
2023-02-19T18:45:53.795Z,0.63
2023-02-19T18:48:20.856Z,0.60
2023-02-19T18:50:47.749Z,0.44
2023-02-19T18:53:14.661Z,0.02
2023-02-19T18:55:41.657Z,0.42
2023-02-19T18:58:10.759Z,0.52
2023-02-19T19:00:37.465Z,0.25
2023-02-19T19:03:05.037Z,0.46
2023-02-19T19:05:32.367Z,0.43
2023-02-19T19:07:59.675Z,0.41
2023-02-19T19:10:27.329Z,0.23
2023-02-19T19:12:54.656Z,0.23
2023-02-19T19:15:24.799Z,-0.84
2023-02-19T19:17:52.565Z,0.37
2023-02-19T19:20:21.728Z,0.14
2023-02-19T19:22:50.757Z,0.22
2023-02-19T19:25:19.172Z,-0.19
2023-02-19T19:27:46.191Z,-0.12
2023-02-19T19:30:13.760Z,-0.32
2023-02-19T19:32:40.905Z,0.16
2023-02-19T19:35:08.392Z,0.16
2023-02-19T19:37:35.423Z,0.16
2023-02-19T19:40:03.841Z,0.22
2023-02-19T19:42:30.894Z,0.11
2023-02-19T19:44:57.981Z,0.27
2023-02-19T19:47:24.780Z,0.23
2023-02-19T19:49:51.674Z,-0.14
2023-02-19T19:52:18.441Z,-0.04
2023-02-19T19:54:45.501Z,0.27
2023-02-19T19:57:12.454Z,0.26
2023-02-19T19:59:39.584Z,0.26
2023-02-19T20:02:07.736Z,0.25
2023-02-19T20:04:34.856Z,0.21
2023-02-19T20:07:02.328Z,0.23
2023-02-19T20:09:29.323Z,0.07
2023-02-19T20:11:56.999Z,-0.04
2023-02-19T20:14:25.370Z,-0.17
2023-02-19T20:16:53.446Z,0.07
2023-02-19T20:19:21.189Z,0.00
2023-02-19T20:21:50.131Z,0.14
2023-02-19T20:24:24.085Z,0.24
2023-02-19T20:26:53.697Z,0.27
2023-02-19T20:29:20.590Z,-0.19
2023-02-19T20:31:50.048Z,0.26
2023-02-19T20:34:17.750Z,-0.08
2023-02-19T20:36:46.731Z,0.30
2023-02-19T20:39:14.716Z,-0.29
2023-02-19T20:41:49.959Z,0.35
2023-02-19T20:44:18.255Z,0.37
2023-02-19T20:46:48.405Z,0.06
2023-02-19T20:49:17.668Z,0.21
2023-02-19T20:51:55.883Z,0.07
2023-02-19T20:54:26.305Z,0.22
2023-02-19T20:56:54.927Z,0.24
2023-02-19T20:59:24.728Z,0.21
2023-02-19T21:01:52.081Z,0.16
2023-02-19T21:04:21.847Z,0.17
2023-02-19T21:06:50.388Z,0.20
2023-02-19T21:09:17.334Z,0.22
2023-02-19T21:11:44.619Z,-0.12
2023-02-19T21:14:11.493Z,-1.12
2023-02-19T21:16:38.441Z,-0.08
2023-02-19T21:19:05.580Z,-0.22
2023-02-19T21:21:34.380Z,-0.54
2023-02-19T21:24:01.876Z,-0.14
2023-02-19T21:26:39.915Z,-0.04
2023-02-19T21:29:08.281Z,0.13
2023-02-19T21:31:40.182Z,0.15
2023-02-19T21:34:08.463Z,-0.02
2023-02-19T21:36:35.815Z,0.07
2023-02-19T21:39:03.398Z,-0.04
2023-02-19T21:41:30.144Z,0.09
2023-02-19T21:43:57.528Z,0.05
2023-02-19T21:46:25.166Z,-0.06
2023-02-19T21:48:54.039Z,0.11
2023-02-19T21:51:33.251Z,-0.81
2023-02-19T21:54:00.609Z,0.12
2023-02-19T21:56:31.619Z,0.05
2023-02-19T21:58:59.018Z,0.09
2023-02-19T22:01:40.464Z,-0.19
2023-02-19T22:04:10.725Z,-0.09
2023-02-19T22:06:39.594Z,-0.28
2023-02-19T22:09:08.093Z,-0.70
2023-02-19T22:11:35.564Z,-0.06
2023-02-19T22:14:02.742Z,-0.05
2023-02-19T22:16:29.807Z,-0.16
2023-02-19T22:18:59.026Z,0.03
2023-02-19T22:21:28.841Z,-0.79
2023-02-19T22:23:55.976Z,-0.44
2023-02-19T22:26:25.720Z,-0.12
2023-02-19T22:28:52.564Z,-0.30
2023-02-19T22:31:21.731Z,-0.41
2023-02-19T22:33:49.031Z,0.07
2023-02-19T22:36:22.205Z,-0.09
2023-02-19T22:38:49.557Z,0.04
2023-02-19T22:41:17.718Z,-0.27
2023-02-19T22:43:44.906Z,0.05
2023-02-19T22:46:23.553Z,0.08
2023-02-19T22:48:50.783Z,-0.20
2023-02-19T22:51:20.251Z,0.11
2023-02-19T22:53:48.895Z,0.07
2023-02-19T22:56:20.693Z,-0.02
2023-02-19T22:58:47.616Z,-0.01
2023-02-19T23:01:15.237Z,-0.07
2023-02-19T23:03:56.901Z,0.01
2023-02-19T23:06:29.428Z,-0.13
2023-02-19T23:09:02.930Z,-0.02
2023-02-19T23:11:33.194Z,-0.60
2023-02-19T23:14:00.117Z,-0.65
2023-02-19T23:16:27.087Z,-0.10
2023-02-19T23:18:54.542Z,-0.08
2023-02-19T23:21:22.092Z,-0.23
2023-02-19T23:23:49.412Z,-0.34
2023-02-19T23:26:17.230Z,-0.40
2023-02-19T23:28:44.695Z,-0.41
2023-02-19T23:31:12.876Z,0.07
2023-02-19T23:33:39.828Z,0.06
2023-02-19T23:36:07.538Z,0.14
2023-02-19T23:38:34.404Z,0.02
2023-02-19T23:41:01.600Z,-0.02
2023-02-19T23:43:28.651Z,-0.07
2023-02-19T23:45:55.465Z,-1.00
2023-02-19T23:48:22.271Z,-1.14
2023-02-19T23:50:49.025Z,0.02
2023-02-19T23:53:15.723Z,-0.02
2023-02-19T23:55:42.565Z,-0.36
2023-02-19T23:58:09.389Z,-0.16
